sensor_id;sensor_type;location;lat;lon;timestamp;pressure;altitude;pressure_sealevel;temperature;humidity
15405;BME280;7801;48.124;11.590;2022-10-31T00:01:37;95904.34;;;13.82;90.73
15405;BME280;7801;48.124;11.590;2022-10-31T00:04:06;95904.47;;;13.63;91.51
15405;BME280;7801;48.124;11.590;2022-10-31T00:06:32;95901.44;;;13.70;91.61
15405;BME280;7801;48.124;11.590;2022-10-31T00:09:02;95903.66;;;13.76;91.18
15405;BME280;7801;48.124;11.590;2022-10-31T00:11:31;95900.81;;;13.73;91.41
15405;BME280;7801;48.124;11.590;2022-10-31T00:13:59;95895.59;;;13.68;91.55
15405;BME280;7801;48.124;11.590;2022-10-31T00:16:27;95901.72;;;13.68;92.09
15405;BME280;7801;48.124;11.590;2022-10-31T00:18:56;95899.53;;;13.57;92.52
15405;BME280;7801;48.124;11.590;2022-10-31T00:21:23;95900.72;;;13.64;92.30
15405;BME280;7801;48.124;11.590;2022-10-31T00:23:48;95910.91;;;13.62;91.84
15405;BME280;7801;48.124;11.590;2022-10-31T00:26:14;95902.13;;;13.62;91.57
15405;BME280;7801;48.124;11.590;2022-10-31T00:28:40;95899.25;;;13.58;91.92
15405;BME280;7801;48.124;11.590;2022-10-31T00:31:08;95895.81;;;13.44;91.92
15405;BME280;7801;48.124;11.590;2022-10-31T00:33:35;95899.97;;;13.50;91.71
15405;BME280;7801;48.124;11.590;2022-10-31T00:36:02;95906.09;;;13.51;91.83
15405;BME280;7801;48.124;11.590;2022-10-31T00:38:28;95903.69;;;13.35;92.25
15405;BME280;7801;48.124;11.590;2022-10-31T00:40:54;95901.81;;;13.36;92.33
15405;BME280;7801;48.124;11.590;2022-10-31T00:43:19;95901.22;;;13.39;91.67
15405;BME280;7801;48.124;11.590;2022-10-31T00:45:46;95894.91;;;13.21;92.50
15405;BME280;7801;48.124;11.590;2022-10-31T00:48:11;95892.84;;;13.32;92.17
15405;BME280;7801;48.124;11.590;2022-10-31T00:50:37;95899.66;;;13.24;92.53
15405;BME280;7801;48.124;11.590;2022-10-31T00:53:08;95888.09;;;13.43;91.46
15405;BME280;7801;48.124;11.590;2022-10-31T00:55:34;95892.53;;;13.20;92.33
15405;BME280;7801;48.124;11.590;2022-10-31T00:58:01;95886.31;;;13.38;92.00
15405;BME280;7801;48.124;11.590;2022-10-31T01:00:27;95888.41;;;13.41;91.87
15405;BME280;7801;48.124;11.590;2022-10-31T01:02:54;95895.59;;;13.40;91.50
15405;BME280;7801;48.124;11.590;2022-10-31T01:05:21;95891.06;;;13.41;91.03
15405;BME280;7801;48.124;11.590;2022-10-31T01:07:47;95886.72;;;13.45;91.21
15405;BME280;7801;48.124;11.590;2022-10-31T01:10:14;95896.78;;;13.34;91.42
15405;BME280;7801;48.124;11.590;2022-10-31T01:12:43;95889.28;;;13.36;91.56
15405;BME280;7801;48.124;11.590;2022-10-31T01:15:12;95895.13;;;13.25;91.82
15405;BME280;7801;48.124;11.590;2022-10-31T01:17:39;95894.41;;;13.33;91.54
15405;BME280;7801;48.124;11.590;2022-10-31T01:20:07;95894.03;;;13.39;91.15
15405;BME280;7801;48.124;11.590;2022-10-31T01:22:35;95898.38;;;13.35;91.60
15405;BME280;7801;48.124;11.590;2022-10-31T01:25:05;95891.84;;;13.41;91.27
15405;BME280;7801;48.124;11.590;2022-10-31T01:27:32;95884.34;;;13.44;90.84
15405;BME280;7801;48.124;11.590;2022-10-31T01:29:57;95901.22;;;13.39;90.71
15405;BME280;7801;48.124;11.590;2022-10-31T01:32:23;95891.16;;;13.36;90.64
15405;BME280;7801;48.124;11.590;2022-10-31T01:34:49;95896.41;;;13.41;90.49
15405;BME280;7801;48.124;11.590;2022-10-31T01:37:17;95900.34;;;13.16;91.26
15405;BME280;7801;48.124;11.590;2022-10-31T01:39:44;95896.88;;;13.16;91.47
15405;BME280;7801;48.124;11.590;2022-10-31T01:42:17;95897.88;;;13.20;91.55
15405;BME280;7801;48.124;11.590;2022-10-31T01:44:56;95889.28;;;13.23;91.30
15405;BME280;7801;48.124;11.590;2022-10-31T01:47:50;95893.53;;;13.24;91.45
15405;BME280;7801;48.124;11.590;2022-10-31T01:50:30;95891.88;;;13.28;91.31
15405;BME280;7801;48.124;11.590;2022-10-31T01:53:00;95890.16;;;13.32;91.12
15405;BME280;7801;48.124;11.590;2022-10-31T01:55:34;95893.31;;;13.34;90.85
15405;BME280;7801;48.124;11.590;2022-10-31T01:58:19;95892.37;;;13.30;90.72
15405;BME280;7801;48.124;11.590;2022-10-31T02:00:49;95883.88;;;13.28;90.63
15405;BME280;7801;48.124;11.590;2022-10-31T02:03:18;95882.69;;;13.20;91.03
15405;BME280;7801;48.124;11.590;2022-10-31T02:05:46;95888.72;;;13.26;91.03
15405;BME280;7801;48.124;11.590;2022-10-31T02:08:23;95892.03;;;13.31;90.65
15405;BME280;7801;48.124;11.590;2022-10-31T02:10:51;95880.81;;;13.21;91.16
15405;BME280;7801;48.124;11.590;2022-10-31T02:13:18;95888.13;;;13.29;90.95
15405;BME280;7801;48.124;11.590;2022-10-31T02:15:51;95888.91;;;13.29;90.63
15405;BME280;7801;48.124;11.590;2022-10-31T02:18:17;95890.66;;;13.20;90.86
15405;BME280;7801;48.124;11.590;2022-10-31T02:20:53;95884.97;;;13.27;90.91
15405;BME280;7801;48.124;11.590;2022-10-31T02:26:25;95887.72;;;13.22;91.20
15405;BME280;7801;48.124;11.590;2022-10-31T02:34:43;95887.84;;;12.98;91.68
15405;BME280;7801;48.124;11.590;2022-10-31T02:37:23;95895.75;;;13.03;91.77
15405;BME280;7801;48.124;11.590;2022-10-31T02:39:56;95895.00;;;13.16;91.10
15405;BME280;7801;48.124;11.590;2022-10-31T02:42:53;95890.53;;;13.12;91.15
15405;BME280;7801;48.124;11.590;2022-10-31T02:45:33;95886.91;;;13.07;91.02
15405;BME280;7801;48.124;11.590;2022-10-31T02:48:12;95887.84;;;13.12;90.76
15405;BME280;7801;48.124;11.590;2022-10-31T02:50:42;95885.50;;;13.10;90.58
15405;BME280;7801;48.124;11.590;2022-10-31T02:53:14;95885.41;;;13.01;91.14
15405;BME280;7801;48.124;11.590;2022-10-31T02:56:15;95885.09;;;13.03;91.14
15405;BME280;7801;48.124;11.590;2022-10-31T02:59:01;95884.31;;;13.02;91.18
15405;BME280;7801;48.124;11.590;2022-10-31T03:10:41;95890.53;;;13.12;90.44
15405;BME280;7801;48.124;11.590;2022-10-31T03:13:37;95887.47;;;13.04;90.98
15405;BME280;7801;48.124;11.590;2022-10-31T03:16:26;95890.81;;;12.96;91.08
15405;BME280;7801;48.124;11.590;2022-10-31T03:19:00;95880.06;;;13.01;90.80
15405;BME280;7801;48.124;11.590;2022-10-31T03:21:32;95881.75;;;12.97;91.23
15405;BME280;7801;48.124;11.590;2022-10-31T03:24:02;95886.75;;;12.85;91.50
15405;BME280;7801;48.124;11.590;2022-10-31T03:26:32;95888.06;;;12.88;91.33
15405;BME280;7801;48.124;11.590;2022-10-31T03:29:05;95888.66;;;12.98;91.03
15405;BME280;7801;48.124;11.590;2022-10-31T03:31:36;95890.88;;;12.91;91.16
15405;BME280;7801;48.124;11.590;2022-10-31T03:34:06;95887.44;;;12.91;91.21
15405;BME280;7801;48.124;11.590;2022-10-31T03:36:34;95889.72;;;12.84;91.50
15405;BME280;7801;48.124;11.590;2022-10-31T03:39:07;95885.47;;;12.83;91.41
15405;BME280;7801;48.124;11.590;2022-10-31T03:41:40;95888.84;;;12.88;91.32
15405;BME280;7801;48.124;11.590;2022-10-31T03:44:16;95885.97;;;12.85;91.54
15405;BME280;7801;48.124;11.590;2022-10-31T03:46:43;95879.56;;;12.86;91.51
15405;BME280;7801;48.124;11.590;2022-10-31T03:49:12;95886.47;;;13.00;90.81
15405;BME280;7801;48.124;11.590;2022-10-31T03:54:36;95890.38;;;12.89;91.15
15405;BME280;7801;48.124;11.590;2022-10-31T03:57:08;95889.22;;;12.95;91.15
15405;BME280;7801;48.124;11.590;2022-10-31T03:59:41;95887.94;;;12.93;91.38
15405;BME280;7801;48.124;11.590;2022-10-31T04:02:13;95883.53;;;13.02;90.71
15405;BME280;7801;48.124;11.590;2022-10-31T04:04:39;95888.66;;;12.98;90.65
15405;BME280;7801;48.124;11.590;2022-10-31T04:07:13;95882.16;;;13.04;90.39
15405;BME280;7801;48.124;11.590;2022-10-31T04:09:46;95886.78;;;12.99;90.61
15405;BME280;7801;48.124;11.590;2022-10-31T04:12:14;95889.16;;;13.00;90.26
15405;BME280;7801;48.124;11.590;2022-10-31T04:14:47;95892.00;;;13.04;89.92
15405;BME280;7801;48.124;11.590;2022-10-31T04:17:16;95890.00;;;12.82;90.63
15405;BME280;7801;48.124;11.590;2022-10-31T04:19:45;95877.69;;;12.86;90.51
15405;BME280;7801;48.124;11.590;2022-10-31T04:22:10;95890.00;;;12.82;90.42
15405;BME280;7801;48.124;11.590;2022-10-31T04:24:37;95889.16;;;12.68;91.12
15405;BME280;7801;48.124;11.590;2022-10-31T04:27:07;95875.03;;;12.86;90.60
15405;BME280;7801;48.124;11.590;2022-10-31T04:29:34;95884.56;;;12.73;91.09
15405;BME280;7801;48.124;11.590;2022-10-31T04:32:01;95894.63;;;12.77;90.60
15405;BME280;7801;48.124;11.590;2022-10-31T04:34:27;95889.91;;;12.87;89.69
15405;BME280;7801;48.124;11.590;2022-10-31T04:36:52;95898.66;;;12.74;90.36
15405;BME280;7801;48.124;11.590;2022-10-31T04:39:18;95900.66;;;12.82;89.84
15405;BME280;7801;48.124;11.590;2022-10-31T04:41:45;95902.22;;;12.83;89.57
15405;BME280;7801;48.124;11.590;2022-10-31T04:44:12;95904.41;;;12.81;89.89
15405;BME280;7801;48.124;11.590;2022-10-31T04:46:38;95899.66;;;12.78;90.18
15405;BME280;7801;48.124;11.590;2022-10-31T04:49:05;95898.56;;;12.79;89.81
15405;BME280;7801;48.124;11.590;2022-10-31T04:51:31;95898.88;;;12.78;89.82
15405;BME280;7801;48.124;11.590;2022-10-31T04:53:57;95903.31;;;12.82;89.54
15405;BME280;7801;48.124;11.590;2022-10-31T04:56:24;95902.81;;;12.80;89.55
15405;BME280;7801;48.124;11.590;2022-10-31T04:58:51;95900.06;;;12.85;89.36
15405;BME280;7801;48.124;11.590;2022-10-31T05:01:16;95906.28;;;12.81;89.34
15405;BME280;7801;48.124;11.590;2022-10-31T05:03:42;95896.41;;;12.81;89.30
15405;BME280;7801;48.124;11.590;2022-10-31T05:06:10;95900.72;;;12.77;89.66
15405;BME280;7801;48.124;11.590;2022-10-31T05:08:36;95898.34;;;12.76;89.76
15405;BME280;7801;48.124;11.590;2022-10-31T05:11:02;95891.75;;;12.73;89.89
15405;BME280;7801;48.124;11.590;2022-10-31T05:13:29;95888.00;;;12.74;89.54
15405;BME280;7801;48.124;11.590;2022-10-31T05:15:55;95887.41;;;12.63;89.82
15405;BME280;7801;48.124;11.590;2022-10-31T05:18:21;95896.06;;;12.69;89.36
15405;BME280;7801;48.124;11.590;2022-10-31T05:20:48;95898.25;;;12.67;89.48
15405;BME280;7801;48.124;11.590;2022-10-31T05:23:13;95888.91;;;12.51;89.76
15405;BME280;7801;48.124;11.590;2022-10-31T05:25:40;95888.19;;;12.64;89.38
15405;BME280;7801;48.124;11.590;2022-10-31T05:28:08;95883.53;;;12.56;89.51
15405;BME280;7801;48.124;11.590;2022-10-31T05:30:34;95878.47;;;12.41;90.20
15405;BME280;7801;48.124;11.590;2022-10-31T05:33:01;95880.19;;;12.31;90.88
15405;BME280;7801;48.124;11.590;2022-10-31T05:35:30;95883.34;;;12.33;90.87
15405;BME280;7801;48.124;11.590;2022-10-31T05:37:58;95877.75;;;12.35;90.44
15405;BME280;7801;48.124;11.590;2022-10-31T05:40:25;95879.59;;;12.34;90.09
15405;BME280;7801;48.124;11.590;2022-10-31T05:42:54;95875.72;;;12.46;89.25
15405;BME280;7801;48.124;11.590;2022-10-31T05:45:21;95877.09;;;12.43;89.45
15405;BME280;7801;48.124;11.590;2022-10-31T05:47:56;95875.66;;;12.32;89.76
15405;BME280;7801;48.124;11.590;2022-10-31T05:50:23;95881.38;;;12.25;89.93
15405;BME280;7801;48.124;11.590;2022-10-31T05:52:55;95877.84;;;12.11;90.45
15405;BME280;7801;48.124;11.590;2022-10-31T05:55:23;95880.38;;;12.02;90.80
15405;BME280;7801;48.124;11.590;2022-10-31T05:57:48;95881.94;;;12.03;90.67
15405;BME280;7801;48.124;11.590;2022-10-31T06:00:15;95877.09;;;12.05;90.58
15405;BME280;7801;48.124;11.590;2022-10-31T06:02:40;95871.03;;;12.05;89.97
15405;BME280;7801;48.124;11.590;2022-10-31T06:05:06;95875.16;;;12.11;89.84
15405;BME280;7801;48.124;11.590;2022-10-31T06:07:35;95875.56;;;12.04;89.69
15405;BME280;7801;48.124;11.590;2022-10-31T06:10:04;95877.25;;;12.14;89.31
15405;BME280;7801;48.124;11.590;2022-10-31T06:12:30;95882.34;;;12.11;88.89
15405;BME280;7801;48.124;11.590;2022-10-31T06:14:55;95882.88;;;11.94;89.16
15405;BME280;7801;48.124;11.590;2022-10-31T06:17:21;95888.16;;;11.75;89.87
15405;BME280;7801;48.124;11.590;2022-10-31T06:19:46;95891.25;;;11.63;90.06
15405;BME280;7801;48.124;11.590;2022-10-31T06:22:13;95891.47;;;11.43;91.22
15405;BME280;7801;48.124;11.590;2022-10-31T06:24:39;95897.81;;;11.47;91.36
15405;BME280;7801;48.124;11.590;2022-10-31T06:27:05;95898.34;;;11.68;90.71
15405;BME280;7801;48.124;11.590;2022-10-31T06:29:31;95896.75;;;11.67;90.33
15405;BME280;7801;48.124;11.590;2022-10-31T06:31:57;95902.09;;;11.43;90.99
15405;BME280;7801;48.124;11.590;2022-10-31T06:34:22;95898.81;;;11.51;91.31
15405;BME280;7801;48.124;11.590;2022-10-31T06:36:48;95898.59;;;11.48;90.97
15405;BME280;7801;48.124;11.590;2022-10-31T06:39:14;95889.41;;;11.83;89.88
15405;BME280;7801;48.124;11.590;2022-10-31T06:41:41;95890.41;;;11.87;89.59
15405;BME280;7801;48.124;11.590;2022-10-31T06:44:07;95880.47;;;11.74;90.22
15405;BME280;7801;48.124;11.590;2022-10-31T06:46:33;95886.03;;;11.77;90.09
15405;BME280;7801;48.124;11.590;2022-10-31T06:49:03;95889.28;;;11.93;89.71
15405;BME280;7801;48.124;11.590;2022-10-31T06:51:28;95888.25;;;11.89;89.51
15405;BME280;7801;48.124;11.590;2022-10-31T06:53:54;95880.66;;;12.01;88.98
15405;BME280;7801;48.124;11.590;2022-10-31T06:56:19;95885.75;;;11.97;89.43
15405;BME280;7801;48.124;11.590;2022-10-31T06:58:46;95890.91;;;12.08;88.67
15405;BME280;7801;48.124;11.590;2022-10-31T07:01:13;95890.63;;;12.09;88.94
15405;BME280;7801;48.124;11.590;2022-10-31T07:03:39;95889.41;;;12.20;88.25
15405;BME280;7801;48.124;11.590;2022-10-31T07:06:05;95898.31;;;12.11;88.73
15405;BME280;7801;48.124;11.590;2022-10-31T07:08:31;95894.34;;;12.27;88.41
15405;BME280;7801;48.124;11.590;2022-10-31T07:10:58;95898.00;;;12.31;88.33
15405;BME280;7801;48.124;11.590;2022-10-31T07:13:25;95889.25;;;12.30;88.55
15405;BME280;7801;48.124;11.590;2022-10-31T07:15:52;95903.13;;;12.46;87.95
15405;BME280;7801;48.124;11.590;2022-10-31T07:18:19;95900.75;;;12.45;88.00
15405;BME280;7801;48.124;11.590;2022-10-31T07:20:48;95899.34;;;12.47;87.80
15405;BME280;7801;48.124;11.590;2022-10-31T07:23:14;95897.00;;;12.46;88.14
15405;BME280;7801;48.124;11.590;2022-10-31T07:25:40;95893.94;;;12.52;87.97
15405;BME280;7801;48.124;11.590;2022-10-31T07:28:06;95897.69;;;12.51;87.94
15405;BME280;7801;48.124;11.590;2022-10-31T07:30:32;95901.72;;;12.49;88.09
15405;BME280;7801;48.124;11.590;2022-10-31T07:32:58;95897.91;;;12.55;88.58
15405;BME280;7801;48.124;11.590;2022-10-31T07:35:26;95902.44;;;12.54;88.57
15405;BME280;7801;48.124;11.590;2022-10-31T07:37:53;95901.00;;;12.62;88.73
15405;BME280;7801;48.124;11.590;2022-10-31T07:40:21;95896.00;;;12.74;88.41
15405;BME280;7801;48.124;11.590;2022-10-31T07:42:48;95896.28;;;12.72;89.10
15405;BME280;7801;48.124;11.590;2022-10-31T07:45:19;95894.13;;;12.74;89.23
15405;BME280;7801;48.124;11.590;2022-10-31T07:47:52;95897.84;;;12.73;89.25
15405;BME280;7801;48.124;11.590;2022-10-31T07:50:22;95896.69;;;12.80;89.36
15405;BME280;7801;48.124;11.590;2022-10-31T07:53:04;95892.16;;;12.80;89.30
15405;BME280;7801;48.124;11.590;2022-10-31T07:55:30;95890.09;;;12.91;88.94
15405;BME280;7801;48.124;11.590;2022-10-31T07:58:00;95889.59;;;12.89;88.99
15405;BME280;7801;48.124;11.590;2022-10-31T08:00:28;95887.66;;;12.94;89.04
15405;BME280;7801;48.124;11.590;2022-10-31T08:03:08;95885.91;;;13.03;88.89
15405;BME280;7801;48.124;11.590;2022-10-31T08:05:37;95886.91;;;13.07;88.75
15405;BME280;7801;48.124;11.590;2022-10-31T08:08:04;95882.97;;;13.19;88.49
15405;BME280;7801;48.124;11.590;2022-10-31T08:10:31;95883.47;;;13.21;88.48
15405;BME280;7801;48.124;11.590;2022-10-31T08:13:01;95881.38;;;13.18;88.75
15405;BME280;7801;48.124;11.590;2022-10-31T08:15:28;95879.91;;;13.25;88.19
15405;BME280;7801;48.124;11.590;2022-10-31T08:17:54;95878.41;;;13.33;88.37
15405;BME280;7801;48.124;11.590;2022-10-31T08:20:20;95876.16;;;13.40;87.87
15405;BME280;7801;48.124;11.590;2022-10-31T08:22:58;95878.03;;;13.39;88.11
15405;BME280;7801;48.124;11.590;2022-10-31T08:25:25;95866.97;;;13.46;88.03
15405;BME280;7801;48.124;11.590;2022-10-31T08:27:55;95864.19;;;13.51;86.56
15405;BME280;7801;48.124;11.590;2022-10-31T08:30:27;95866.38;;;13.63;85.25
15405;BME280;7801;48.124;11.590;2022-10-31T08:33:03;95865.19;;;13.69;85.49
15405;BME280;7801;48.124;11.590;2022-10-31T08:35:29;95860.00;;;13.72;86.38
15405;BME280;7801;48.124;11.590;2022-10-31T08:37:55;95862.37;;;13.74;86.55
15405;BME280;7801;48.124;11.590;2022-10-31T08:40:24;95861.69;;;13.82;86.14
15405;BME280;7801;48.124;11.590;2022-10-31T08:43:05;95853.97;;;13.81;87.18
15405;BME280;7801;48.124;11.590;2022-10-31T08:45:33;95849.53;;;13.90;86.34
15405;BME280;7801;48.124;11.590;2022-10-31T08:48:02;95853.53;;;14.01;85.55
15405;BME280;7801;48.124;11.590;2022-10-31T08:50:29;95842.25;;;14.04;86.23
15405;BME280;7801;48.124;11.590;2022-10-31T08:53:07;95848.94;;;14.15;86.09
15405;BME280;7801;48.124;11.590;2022-10-31T08:55:34;95842.75;;;14.28;86.32
15405;BME280;7801;48.124;11.590;2022-10-31T08:58:02;95844.97;;;14.35;86.51
15405;BME280;7801;48.124;11.590;2022-10-31T09:00:27;95843.75;;;14.32;86.62
15405;BME280;7801;48.124;11.590;2022-10-31T09:03:05;95845.78;;;14.35;86.72
15405;BME280;7801;48.124;11.590;2022-10-31T09:05:32;95829.16;;;14.38;87.09
15405;BME280;7801;48.124;11.590;2022-10-31T09:08:00;95825.31;;;14.44;87.37
15405;BME280;7801;48.124;11.590;2022-10-31T09:10:28;95832.72;;;14.48;87.53
15405;BME280;7801;48.124;11.590;2022-10-31T09:13:00;95825.69;;;14.60;87.18
15405;BME280;7801;48.124;11.590;2022-10-31T09:15:27;95820.06;;;14.62;87.19
15405;BME280;7801;48.124;11.590;2022-10-31T09:17:53;95819.03;;;14.71;86.69
15405;BME280;7801;48.124;11.590;2022-10-31T09:20:19;95821.72;;;14.80;86.18
15405;BME280;7801;48.124;11.590;2022-10-31T09:22:45;95812.31;;;14.83;85.94
15405;BME280;7801;48.124;11.590;2022-10-31T09:25:11;95812.97;;;14.88;85.80
15405;BME280;7801;48.124;11.590;2022-10-31T09:30:30;95802.66;;;15.04;84.65
15405;BME280;7801;48.124;11.590;2022-10-31T09:33:00;95801.41;;;15.10;84.00
15405;BME280;7801;48.124;11.590;2022-10-31T09:35:27;95796.72;;;15.16;83.73
15405;BME280;7801;48.124;11.590;2022-10-31T09:38:00;95797.53;;;15.25;83.13
15405;BME280;7801;48.124;11.590;2022-10-31T09:44:05;95796.31;;;15.48;80.60
15405;BME280;7801;48.124;11.590;2022-10-31T09:46:47;95798.19;;;15.47;80.51
15405;BME280;7801;48.124;11.590;2022-10-31T09:52:22;95792.91;;;15.73;77.97
15405;BME280;7801;48.124;11.590;2022-10-31T09:55:09;95794.16;;;15.67;78.69
15405;BME280;7801;48.124;11.590;2022-10-31T09:57:41;95792.75;;;15.70;78.42
15405;BME280;7801;48.124;11.590;2022-10-31T10:00:14;95791.34;;;15.72;78.03
15405;BME280;7801;48.124;11.590;2022-10-31T10:05:37;95779.41;;;15.78;77.56
15405;BME280;7801;48.124;11.590;2022-10-31T10:08:09;95774.34;;;15.86;77.21
15405;BME280;7801;48.124;11.590;2022-10-31T10:10:55;95778.44;;;15.92;76.54
15405;BME280;7801;48.124;11.590;2022-10-31T10:13:55;95780.34;;;16.00;76.69
15405;BME280;7801;48.124;11.590;2022-10-31T10:16:54;95781.09;;;16.00;77.00
15405;BME280;7801;48.124;11.590;2022-10-31T10:22:37;95776.22;;;16.20;75.97
15405;BME280;7801;48.124;11.590;2022-10-31T10:25:28;95776.66;;;16.22;76.47
15405;BME280;7801;48.124;11.590;2022-10-31T10:31:00;95774.09;;;16.51;74.74
15405;BME280;7801;48.124;11.590;2022-10-31T10:33:47;95771.84;;;16.70;74.16
15405;BME280;7801;48.124;11.590;2022-10-31T10:36:39;95766.00;;;16.77;73.98
15405;BME280;7801;48.124;11.590;2022-10-31T10:39:15;95766.28;;;16.84;73.34
15405;BME280;7801;48.124;11.590;2022-10-31T10:41:45;95762.22;;;16.78;73.86
15405;BME280;7801;48.124;11.590;2022-10-31T10:44:12;95759.38;;;16.83;73.90
15405;BME280;7801;48.124;11.590;2022-10-31T10:46:41;95752.84;;;16.93;73.37
15405;BME280;7801;48.124;11.590;2022-10-31T10:49:53;95751.91;;;16.89;73.52
15405;BME280;7801;48.124;11.590;2022-10-31T10:58:03;95753.59;;;17.31;65.80
15405;BME280;7801;48.124;11.590;2022-10-31T11:00:42;95748.69;;;17.33;65.88
15405;BME280;7801;48.124;11.590;2022-10-31T11:03:09;95742.22;;;17.34;65.91
15405;BME280;7801;48.124;11.590;2022-10-31T11:05:44;95737.69;;;17.47;65.29
15405;BME280;7801;48.124;11.590;2022-10-31T11:08:23;95732.78;;;17.49;65.21
15405;BME280;7801;48.124;11.590;2022-10-31T11:11:01;95732.78;;;17.49;65.60
15405;BME280;7801;48.124;11.590;2022-10-31T11:13:29;95735.47;;;17.49;65.60
15405;BME280;7801;48.124;11.590;2022-10-31T11:16:15;95730.44;;;17.47;65.75
15405;BME280;7801;48.124;11.590;2022-10-31T11:18:54;95732.78;;;17.49;66.25
15405;BME280;7801;48.124;11.590;2022-10-31T11:21:30;95727.38;;;17.37;67.06
15405;BME280;7801;48.124;11.590;2022-10-31T11:24:17;95725.13;;;17.39;67.31
15405;BME280;7801;48.124;11.590;2022-10-31T11:26:46;95715.66;;;17.41;67.17
15405;BME280;7801;48.124;11.590;2022-10-31T11:29:24;95719.69;;;17.47;66.43
15405;BME280;7801;48.124;11.590;2022-10-31T11:31:53;95712.25;;;17.53;65.18
15405;BME280;7801;48.124;11.590;2022-10-31T11:34:35;95719.19;;;17.54;64.54
15405;BME280;7801;48.124;11.590;2022-10-31T11:37:12;95715.81;;;17.66;64.18
15405;BME280;7801;48.124;11.590;2022-10-31T11:39:44;95715.16;;;17.69;63.91
15405;BME280;7801;48.124;11.590;2022-10-31T11:42:11;95715.41;;;17.76;63.54
15405;BME280;7801;48.124;11.590;2022-10-31T11:44:41;95709.72;;;17.77;63.69
15405;BME280;7801;48.124;11.590;2022-10-31T11:47:13;95701.84;;;17.72;64.40
15405;BME280;7801;48.124;11.590;2022-10-31T11:49:42;95702.97;;;17.71;64.72
15405;BME280;7801;48.124;11.590;2022-10-31T11:52:36;95697.53;;;17.80;64.38
15405;BME280;7801;48.124;11.590;2022-10-31T11:55:39;95684.91;;;17.80;64.33
15405;BME280;7801;48.124;11.590;2022-10-31T11:58:18;95683.72;;;17.69;65.26
15405;BME280;7801;48.124;11.590;2022-10-31T12:00:52;95682.41;;;17.75;64.50
15405;BME280;7801;48.124;11.590;2022-10-31T12:03:34;95683.72;;;17.69;66.07
15405;BME280;7801;48.124;11.590;2022-10-31T12:08:35;95677.47;;;17.65;65.90
15405;BME280;7801;48.124;11.590;2022-10-31T12:11:27;95676.97;;;17.63;66.29
15405;BME280;7801;48.124;11.590;2022-10-31T12:23:24;95666.31;;;17.75;66.79
15405;BME280;7801;48.124;11.590;2022-10-31T12:26:11;95662.13;;;17.87;66.44
15405;BME280;7801;48.124;11.590;2022-10-31T12:37:44;95646.00;;;17.87;67.08
15405;BME280;7801;48.124;11.590;2022-10-31T12:46:01;95650.38;;;17.91;67.82
15405;BME280;7801;48.124;11.590;2022-10-31T12:57:45;95638.88;;;18.03;68.29
15405;BME280;7801;48.124;11.590;2022-10-31T13:00:32;95635.94;;;17.96;68.65
15405;BME280;7801;48.124;11.590;2022-10-31T13:03:26;95629.47;;;17.97;68.47
15405;BME280;7801;48.124;11.590;2022-10-31T13:05:59;95617.16;;;17.96;68.95
15405;BME280;7801;48.124;11.590;2022-10-31T13:08:37;95613.03;;;17.98;69.40
15405;BME280;7801;48.124;11.590;2022-10-31T13:11:16;95611.13;;;18.11;68.63
15405;BME280;7801;48.124;11.590;2022-10-31T13:14:07;95608.91;;;18.13;68.73
15405;BME280;7801;48.124;11.590;2022-10-31T13:16:42;95611.72;;;18.16;69.09
15405;BME280;7801;48.124;11.590;2022-10-31T13:21:41;95594.38;;;18.14;69.31
15405;BME280;7801;48.124;11.590;2022-10-31T13:24:18;95595.59;;;18.16;69.42
15405;BME280;7801;48.124;11.590;2022-10-31T13:26:56;95591.78;;;18.17;70.00
15405;BME280;7801;48.124;11.590;2022-10-31T13:29:33;95596.37;;;18.17;69.80
15405;BME280;7801;48.124;11.590;2022-10-31T13:32:04;95586.09;;;18.07;70.40
15405;BME280;7801;48.124;11.590;2022-10-31T13:34:41;95590.34;;;18.20;69.91
15405;BME280;7801;48.124;11.590;2022-10-31T13:37:35;95584.75;;;18.25;69.70
15405;BME280;7801;48.124;11.590;2022-10-31T13:43:11;95583.62;;;18.02;71.23
15405;BME280;7801;48.124;11.590;2022-10-31T13:45:58;95584.06;;;18.04;71.11
15405;BME280;7801;48.124;11.590;2022-10-31T13:48:35;95573.66;;;18.14;70.64
15405;BME280;7801;48.124;11.590;2022-10-31T13:51:11;95573.66;;;18.14;70.80
15405;BME280;7801;48.124;11.590;2022-10-31T13:58:33;95571.19;;;17.85;72.71
15405;BME280;7801;48.124;11.590;2022-10-31T14:01:18;95578.22;;;17.90;72.54
15405;BME280;7801;48.124;11.590;2022-10-31T14:03:47;95573.97;;;17.89;72.73
15405;BME280;7801;48.124;11.590;2022-10-31T14:06:40;95566.28;;;17.87;73.01
15405;BME280;7801;48.124;11.590;2022-10-31T14:09:19;95575.19;;;17.79;73.69
15405;BME280;7801;48.124;11.590;2022-10-31T14:11:47;95562.88;;;17.78;73.99
15405;BME280;7801;48.124;11.590;2022-10-31T14:14:13;95565.78;;;17.73;74.27
15405;BME280;7801;48.124;11.590;2022-10-31T14:16:44;95565.78;;;17.73;73.89
15405;BME280;7801;48.124;11.590;2022-10-31T14:19:19;95555.03;;;17.73;73.85
15405;BME280;7801;48.124;11.590;2022-10-31T14:21:47;95560.53;;;17.76;73.59
15405;BME280;7801;48.124;11.590;2022-10-31T14:27:35;95550.03;;;17.96;73.21
15405;BME280;7801;48.124;11.590;2022-10-31T14:29:52;95545.25;;;18.01;73.07
15405;BME280;7801;48.124;11.590;2022-10-31T14:32:24;95545.38;;;18.05;73.06
15405;BME280;7801;48.124;11.590;2022-10-31T14:34:56;95542.56;;;18.01;73.57
15405;BME280;7801;48.124;11.590;2022-10-31T14:38:01;95530.81;;;18.06;73.50
15405;BME280;7801;48.124;11.590;2022-10-31T14:46:50;95525.88;;;17.96;74.87
15405;BME280;7801;48.124;11.590;2022-10-31T14:52:08;95531.47;;;17.78;75.61
15405;BME280;7801;48.124;11.590;2022-10-31T14:54:40;95524.53;;;17.77;75.79
15405;BME280;7801;48.124;11.590;2022-10-31T14:57:22;95520.19;;;17.85;75.81
15405;BME280;7801;48.124;11.590;2022-10-31T14:59:52;95523.19;;;17.83;76.09
15405;BME280;7801;48.124;11.590;2022-10-31T15:02:38;95513.47;;;17.91;75.97
15405;BME280;7801;48.124;11.590;2022-10-31T15:05:11;95515.03;;;17.80;76.26
15405;BME280;7801;48.124;11.590;2022-10-31T15:07:48;95518.59;;;17.72;77.40